Time;durP1;ratioP1;P1;durP2;ratioP2;P2;SDS_P1;SDS_P2;PMS_P1;PMS_P2;Temp;Humidity;BMP_temperature;BMP_pressure;BME280_temperature;BME280_humidity;BME280_pressure;Samples;Min_cycle;Max_cycle;Signal;HPM_P1;HPM_P2
2022/10/15 00:00:05;;;;;;;5.87;3.23;;;;;;;13.32;100.00;100162.47;5998642;28;20031;-66
2022/10/15 00:03:00;;;;;;;8.82;3.33;;;;;;;13.24;100.00;100146.53;5998459;28;20058;-66
2022/10/15 00:05:55;;;;;;;5.88;2.97;;;;;;;13.24;100.00;100143.88;5999050;28;20466;-66
2022/10/15 00:08:51;;;;;;;5.53;3.23;;;;;;;13.31;100.00;100166.16;5998872;28;20098;-66
2022/10/15 00:11:46;;;;;;;4.97;3.00;;;;;;;13.22;100.00;100151.22;5998381;28;20109;-66
2022/10/15 00:14:41;;;;;;;6.00;3.50;;;;;;;13.20;100.00;100145.25;5998970;28;20058;-66
2022/10/15 00:17:37;;;;;;;7.20;3.57;;;;;;;13.19;100.00;100139.09;5998391;28;20727;-66
2022/10/15 00:20:33;;;;;;;7.80;3.10;;;;;;;13.23;100.00;100134.25;5998369;28;20066;-66
2022/10/15 00:23:29;;;;;;;7.88;3.60;;;;;;;13.10;100.00;100124.16;5998468;28;20035;-66
2022/10/15 00:26:27;;;;;;;6.07;3.10;;;;;;;13.18;100.00;100134.75;5998872;28;20105;-66
2022/10/15 00:29:22;;;;;;;7.25;3.28;;;;;;;13.17;100.00;100143.78;5997599;28;20038;-66
2022/10/15 00:32:17;;;;;;;6.87;3.80;;;;;;;13.10;100.00;100138.31;5998297;28;20077;-66
2022/10/15 00:35:13;;;;;;;5.77;3.50;;;;;;;13.22;100.00;100149.41;5998938;28;20093;-66
2022/10/15 00:38:08;;;;;;;8.80;3.88;;;;;;;13.17;100.00;100137.63;5998589;28;20379;-66
2022/10/15 00:41:05;;;;;;;7.63;4.07;;;;;;;13.21;100.00;100149.59;5998133;28;20170;-66
2022/10/15 00:44:22;;;;;;;6.03;3.25;;;;;;;13.17;100.00;100148.25;5998056;28;20057;-66
2022/10/15 00:47:19;;;;;;;8.07;2.85;;;;;;;13.21;100.00;100154.91;5998678;28;20054;-66
2022/10/15 00:50:23;;;;;;;5.55;3.05;;;;;;;13.19;100.00;100148.91;5996485;28;20031;-66
2022/10/15 00:53:18;;;;;;;5.50;2.92;;;;;;;13.10;100.00;100134.81;5998330;28;20034;-66
2022/10/15 00:56:16;;;;;;;6.83;3.60;;;;;;;13.16;100.00;100138.59;5997280;28;20031;-66
2022/10/15 00:59:13;;;;;;;6.32;3.45;;;;;;;13.03;100.00;100129.34;5997007;28;20576;-66
2022/10/15 01:02:09;;;;;;;6.55;3.40;;;;;;;13.13;100.00;100149.63;5996875;28;20034;-66
2022/10/15 01:05:05;;;;;;;7.85;3.92;;;;;;;13.06;100.00;100126.34;5996832;28;20046;-66
2022/10/15 01:08:01;;;;;;;7.10;3.60;;;;;;;13.07;100.00;100133.34;6000010;28;20031;-66
2022/10/15 01:11:12;;;;;;;7.90;3.40;;;;;;;12.99;100.00;100137.88;6016960;28;20545;-66
2022/10/15 01:14:13;;;;;;;6.22;3.35;;;;;;;13.01;100.00;100139.34;6002496;28;20042;-66
2022/10/15 01:17:20;;;;;;;6.50;3.25;;;;;;;13.07;100.00;100135.19;6002584;28;20027;-66
2022/10/15 01:20:33;;;;;;;9.15;3.72;;;;;;;12.99;100.00;100130.69;6002079;28;20037;-66
2022/10/15 01:23:43;;;;;;;6.82;3.47;;;;;;;13.02;100.00;100135.66;5994393;28;20034;-66
2022/10/15 01:27:00;;;;;;;7.30;3.85;;;;;;;13.00;100.00;100137.69;6001877;28;20487;-66
2022/10/15 01:30:26;;;;;;;7.78;3.40;;;;;;;13.03;100.00;100128.53;6002009;28;20470;-66
2022/10/15 01:33:33;;;;;;;8.90;4.13;;;;;;;12.97;100.00;100140.69;6001347;28;20049;-66
2022/10/15 01:36:36;;;;;;;10.95;4.25;;;;;;;12.95;100.00;100133.88;6001712;28;20038;-65
2022/10/15 01:39:36;;;;;;;9.60;4.75;;;;;;;12.85;100.00;100130.63;6000669;28;20039;-65
2022/10/15 01:42:55;;;;;;;6.82;3.53;;;;;;;12.83;100.00;100119.31;5999631;28;20537;-65
2022/10/15 01:46:00;;;;;;;7.70;4.10;;;;;;;12.85;100.00;100126.16;6001316;28;20062;-65
2022/10/15 01:48:57;;;;;;;8.98;3.97;;;;;;;12.79;100.00;100126.84;6002481;28;20106;-65
2022/10/15 01:51:53;;;;;;;6.72;3.55;;;;;;;12.77;100.00;100120.88;5999793;28;20034;-65
2022/10/15 01:54:49;;;;;;;9.35;4.15;;;;;;;12.64;100.00;100109.94;6016268;28;20042;-65
2022/10/15 01:57:45;;;;;;;7.80;4.10;;;;;;;12.59;100.00;100114.13;6000146;28;20050;-65
2022/10/15 02:00:41;;;;;;;8.60;3.97;;;;;;;12.45;100.00;100113.03;6001073;28;20045;-65
2022/10/15 02:03:48;;;;;;;8.27;3.55;;;;;;;12.40;100.00;100121.53;5999770;28;20046;-65
2022/10/15 02:06:47;;;;;;;6.00;3.35;;;;;;;12.37;100.00;100129.00;6001305;28;20042;-65
2022/10/15 02:09:56;;;;;;;6.53;3.63;;;;;;;12.21;100.00;100111.28;6016037;28;20053;-65
2022/10/15 02:13:00;;;;;;;7.22;3.53;;;;;;;12.28;100.00;100127.41;6016042;28;20057;-65
2022/10/15 02:16:12;;;;;;;6.80;3.65;;;;;;;12.32;100.00;100126.03;6000692;28;20094;-65
2022/10/15 02:19:21;;;;;;;7.40;3.50;;;;;;;12.14;100.00;100106.84;6015522;28;20038;-65
2022/10/15 02:22:36;;;;;;;7.72;3.70;;;;;;;12.14;100.00;100105.00;6014850;28;20053;-65
2022/10/15 02:25:34;;;;;;;8.25;4.32;;;;;;;12.01;100.00;100090.59;5993650;28;20043;-65
2022/10/15 02:28:30;;;;;;;8.13;4.00;;;;;;;11.90;100.00;100095.25;5999437;28;20136;-65
2022/10/15 02:31:29;;;;;;;8.73;4.47;;;;;;;11.64;100.00;100085.81;5999186;28;20039;-65
2022/10/15 02:34:27;;;;;;;7.63;3.53;;;;;;;11.57;100.00;100096.28;5999369;28;20089;-65
2022/10/15 02:37:24;;;;;;;8.10;3.75;;;;;;;11.64;100.00;100084.00;6000676;28;20034;-65
2022/10/15 02:40:21;;;;;;;7.25;4.15;;;;;;;11.69;100.00;100102.09;5998829;28;20466;-65
2022/10/15 02:43:19;;;;;;;8.40;3.92;;;;;;;11.57;100.00;100093.63;5998964;28;20482;-65
2022/10/15 02:46:16;;;;;;;7.57;4.32;;;;;;;11.46;100.00;100093.16;6000447;28;20053;-65
2022/10/15 02:49:11;;;;;;;9.07;4.32;;;;;;;11.45;100.00;100105.59;5999114;28;20037;-65
2022/10/15 02:52:06;;;;;;;8.88;4.47;;;;;;;11.30;100.00;100096.63;5999894;28;20461;-65
2022/10/15 02:55:02;;;;;;;10.30;4.60;;;;;;;11.16;100.00;100081.38;6000108;28;20035;-65
2022/10/15 02:57:57;;;;;;;9.80;4.82;;;;;;;11.16;100.00;100094.63;5999911;28;20050;-65
2022/10/15 03:00:53;;;;;;;7.27;4.13;;;;;;;11.12;100.00;100095.94;5999547;28;20136;-65
2022/10/15 03:03:48;;;;;;;9.00;4.20;;;;;;;11.08;100.00;100086.66;6000261;28;20280;-65
2022/10/15 03:06:43;;;;;;;10.67;4.63;;;;;;;11.05;100.00;100097.59;5999589;28;20039;-65
2022/10/15 03:09:39;;;;;;;7.27;4.47;;;;;;;11.19;100.00;100102.28;5999491;28;20733;-65
2022/10/15 03:12:34;;;;;;;8.60;4.40;;;;;;;11.36;100.00;100096.78;5998741;28;20085;-65
2022/10/15 03:15:29;;;;;;;8.60;4.70;;;;;;;11.08;100.00;100097.28;5999674;28;20030;-65
2022/10/15 03:18:25;;;;;;;9.00;4.45;;;;;;;11.18;100.00;100079.38;5999535;28;20973;-65
2022/10/15 03:21:20;;;;;;;7.87;3.83;;;;;;;11.04;100.00;100101.25;5999211;28;20035;-65
2022/10/15 03:24:15;;;;;;;7.60;3.53;;;;;;;10.98;100.00;100099.28;5999711;28;20274;-65
2022/10/15 03:27:10;;;;;;;9.50;3.97;;;;;;;11.32;100.00;100094.63;5999322;28;20031;-65
2022/10/15 03:30:07;;;;;;;10.63;4.53;;;;;;;11.42;100.00;100095.28;5999055;28;20118;-65
2022/10/15 03:33:02;;;;;;;9.52;4.28;;;;;;;11.26;100.00;100090.00;5997576;28;20033;-65
2022/10/15 03:35:57;;;;;;;7.77;3.60;;;;;;;11.06;100.00;100097.44;5999254;28;20763;-65
2022/10/15 03:38:53;;;;;;;7.93;4.30;;;;;;;11.29;100.00;100100.28;5999332;28;20278;-65
2022/10/15 03:41:51;;;;;;;7.70;3.60;;;;;;;11.15;100.00;100087.66;5997043;28;20045;-65
2022/10/15 03:44:47;;;;;;;11.23;4.07;;;;;;;11.41;100.00;100098.97;5999407;28;20035;-65
2022/10/15 03:47:42;;;;;;;9.45;4.10;;;;;;;11.31;100.00;100095.63;5990776;28;20093;-67
2022/10/15 03:50:37;;;;;;;9.70;4.50;;;;;;;10.95;100.00;100102.25;5998197;28;20554;-65
2022/10/15 03:53:32;;;;;;;6.37;3.30;;;;;;;10.66;100.00;100114.09;5999263;28;20057;-65
2022/10/15 03:56:28;;;;;;;6.13;3.20;;;;;;;10.38;100.00;100096.75;5998824;28;20043;-65
2022/10/15 03:59:23;;;;;;;6.13;3.65;;;;;;;10.43;100.00;100097.13;5990271;28;20031;-65
2022/10/15 04:02:19;;;;;;;9.20;3.63;;;;;;;10.39;100.00;100095.78;5998370;28;20105;-65
2022/10/15 04:05:14;;;;;;;8.53;3.90;;;;;;;10.35;100.00;100094.47;5998826;28;20050;-65
2022/10/15 04:08:09;;;;;;;6.65;3.47;;;;;;;10.45;100.00;100092.50;5998907;28;20274;-65
2022/10/15 04:11:06;;;;;;;7.03;3.80;;;;;;;10.65;100.00;100107.13;5998544;28;20022;-65
2022/10/15 04:14:01;;;;;;;9.25;4.30;;;;;;;10.89;100.00;100085.16;5999190;28;20030;-65
2022/10/15 04:16:57;;;;;;;7.05;3.75;;;;;;;10.76;100.00;100104.19;5998874;28;20059;-65
2022/10/15 04:19:53;;;;;;;8.18;3.60;;;;;;;10.70;100.00;100088.94;5998818;28;20077;-65
2022/10/15 04:22:48;;;;;;;7.97;4.03;;;;;;;10.74;100.00;100100.88;5998191;28;20027;-65
2022/10/15 04:25:44;;;;;;;11.53;4.00;;;;;;;10.77;100.00;100100.53;5998729;28;20086;-65
2022/10/15 04:28:40;;;;;;;8.35;3.95;;;;;;;10.70;100.00;100112.81;5998880;28;20046;-65
2022/10/15 04:31:36;;;;;;;8.10;3.77;;;;;;;10.57;100.00;100093.84;5998062;28;20035;-65
2022/10/15 04:34:31;;;;;;;7.38;3.65;;;;;;;10.66;100.00;100103.50;5998533;28;20821;-65
2022/10/15 04:37:27;;;;;;;10.13;4.53;;;;;;;10.65;100.00;100112.44;5998516;28;20027;-65
2022/10/15 04:40:22;;;;;;;6.70;3.80;;;;;;;10.57;100.00;100109.75;5997363;28;20117;-65
2022/10/15 04:43:17;;;;;;;8.10;4.07;;;;;;;10.72;100.00;100110.81;6000297;28;20403;-65
2022/10/15 04:46:13;;;;;;;7.43;3.80;;;;;;;10.55;100.00;100121.50;6002850;28;20123;-65
2022/10/15 04:49:08;;;;;;;7.93;4.03;;;;;;;10.34;100.00;100108.69;6002906;28;20030;-66
2022/10/15 04:52:03;;;;;;;9.03;4.07;;;;;;;10.69;100.00;100112.94;6002041;28;20082;-65
2022/10/15 04:54:59;;;;;;;7.88;4.25;;;;;;;10.36;100.00;100117.31;6002765;28;20363;-65
2022/10/15 04:57:54;;;;;;;8.30;3.60;;;;;;;10.53;100.00;100116.38;6002481;28;20031;-65
2022/10/15 05:00:49;;;;;;;9.97;4.17;;;;;;;10.48;100.00;100115.22;6000136;28;20546;-65
2022/10/15 05:03:46;;;;;;;8.30;4.43;;;;;;;10.24;100.00;100121.25;6002900;28;20066;-65
2022/10/15 05:06:41;;;;;;;8.38;4.10;;;;;;;10.51;100.00;100125.50;6002457;28;20357;-65
2022/10/15 05:09:37;;;;;;;10.63;4.33;;;;;;;10.60;100.00;100127.16;6002929;28;20046;-65
2022/10/15 05:12:32;;;;;;;8.40;4.03;;;;;;;10.66;100.00;100132.66;6002110;28;20346;-65
2022/10/15 05:15:27;;;;;;;9.83;4.93;;;;;;;10.79;100.00;100129.53;6001927;28;20039;-65
2022/10/15 05:18:23;;;;;;;10.73;4.85;;;;;;;10.44;100.00;100124.44;6002221;28;20322;-65
2022/10/15 05:21:18;;;;;;;10.23;4.87;;;;;;;10.85;100.00;100136.03;6001825;28;20035;-65
2022/10/15 05:24:14;;;;;;;9.07;4.53;;;;;;;10.73;100.00;100117.75;6002451;28;20066;-65
2022/10/15 05:27:09;;;;;;;11.88;5.30;;;;;;;10.56;100.00;100134.63;6002359;28;20027;-65
2022/10/15 05:30:05;;;;;;;9.73;4.17;;;;;;;10.12;100.00;100141.00;6001450;28;20034;-65
2022/10/15 05:33:00;;;;;;;10.18;4.30;;;;;;;10.37;100.00;100128.75;6001776;28;20274;-65
2022/10/15 05:35:55;;;;;;;9.50;4.70;;;;;;;10.56;100.00;100128.50;6001717;28;20038;-65
2022/10/15 05:38:53;;;;;;;11.73;5.50;;;;;;;10.72;100.00;100137.34;6001958;28;20063;-65
2022/10/15 05:41:48;;;;;;;12.60;5.90;;;;;;;10.74;100.00;100122.09;6001198;28;20715;-65
2022/10/15 05:44:44;;;;;;;12.43;5.20;;;;;;;11.06;100.00;100139.88;6001343;28;20045;-65
2022/10/15 05:47:39;;;;;;;12.37;6.00;;;;;;;11.17;100.00;100136.13;6001542;28;20041;-65
2022/10/15 05:50:34;;;;;;;12.50;5.53;;;;;;;11.20;100.00;100144.56;6000662;28;20105;-65
2022/10/15 05:53:30;;;;;;;14.25;6.22;;;;;;;11.12;100.00;100135.75;6000575;28;20352;-65
2022/10/15 05:56:25;;;;;;;12.33;6.20;;;;;;;11.21;100.00;100145.41;6000983;28;20081;-65
2022/10/15 05:59:21;;;;;;;12.02;6.10;;;;;;;11.08;100.00;100139.75;6001003;28;20800;-65
2022/10/15 06:02:16;;;;;;;15.17;5.90;;;;;;;11.03;100.00;100142.88;6000648;28;20050;-65
2022/10/15 06:05:11;;;;;;;15.13;7.70;;;;;;;11.14;100.00;100161.13;6000821;28;20065;-65
2022/10/15 06:08:07;;;;;;;14.25;7.03;;;;;;;11.20;100.00;100175.56;6001545;28;20027;-65
2022/10/15 06:11:03;;;;;;;13.70;6.27;;;;;;;11.41;100.00;100175.97;6000783;28;20027;-65
2022/10/15 06:13:58;;;;;;;14.02;7.07;;;;;;;11.31;100.00;100161.97;6000400;28;20061;-65
2022/10/15 06:16:53;;;;;;;15.70;7.77;;;;;;;11.51;100.00;100167.81;6001381;28;20035;-65
2022/10/15 06:19:49;;;;;;;14.85;7.18;;;;;;;11.34;100.00;100169.63;6000749;28;20566;-65
2022/10/15 06:22:44;;;;;;;14.53;6.73;;;;;;;11.37;100.00;100171.94;6000143;28;20055;-65
2022/10/15 06:25:39;;;;;;;15.07;7.53;;;;;;;11.58;100.00;100163.50;6000302;28;20375;-66
2022/10/15 06:28:36;;;;;;;17.17;7.80;;;;;;;11.55;100.00;100169.97;6000694;28;20550;-65
2022/10/15 06:31:31;;;;;;;15.77;7.57;;;;;;;11.41;100.00;100162.69;6000256;28;20034;-65
2022/10/15 06:34:27;;;;;;;15.55;7.13;;;;;;;11.85;100.00;100161.34;6000684;28;20034;-65
2022/10/15 06:37:22;;;;;;;16.33;8.50;;;;;;;11.46;100.00;100155.03;6000744;28;20109;-65
2022/10/15 06:40:18;;;;;;;14.97;8.33;;;;;;;11.47;100.00;100177.94;5999934;28;20387;-65
2022/10/15 06:43:13;;;;;;;16.85;8.70;;;;;;;11.36;100.00;100172.94;6000220;28;20336;-65
2022/10/15 06:46:08;;;;;;;16.40;8.63;;;;;;;11.23;100.00;100175.25;6000368;28;20537;-65
2022/10/15 06:49:04;;;;;;;15.87;7.73;;;;;;;11.25;100.00;100175.94;6000263;28;20035;-65
2022/10/15 06:51:59;;;;;;;15.57;7.23;;;;;;;11.34;100.00;100173.13;5999909;28;20121;-65
2022/10/15 06:54:54;;;;;;;16.57;7.37;;;;;;;11.58;100.00;100174.94;5999922;28;20034;-65
2022/10/15 06:57:50;;;;;;;16.77;7.37;;;;;;;11.52;100.00;100196.88;6000394;28;20027;-65
2022/10/15 07:00:45;;;;;;;17.97;8.27;;;;;;;11.74;100.00;100190.91;6000050;28;20070;-65
2022/10/15 07:03:42;;;;;;;24.00;7.83;;;;;;;11.72;100.00;100190.25;5999857;28;20478;-65
2022/10/15 07:06:37;;;;;;;22.52;9.65;;;;;;;11.70;100.00;100194.06;6000074;28;20377;-65
2022/10/15 07:09:34;;;;;;;17.10;8.40;;;;;;;11.71;100.00;100188.59;5999997;28;20062;-65
2022/10/15 07:12:29;;;;;;;16.95;7.53;;;;;;;12.00;100.00;100200.53;5999547;28;20065;-65
2022/10/15 07:15:24;;;;;;;16.33;7.67;;;;;;;12.00;100.00;100192.56;5999644;28;20043;-65
2022/10/15 07:18:20;;;;;;;16.40;7.57;;;;;;;12.06;100.00;100207.84;5999029;28;20026;-65
2022/10/15 07:21:15;;;;;;;14.33;6.50;;;;;;;12.19;100.00;100221.44;5998693;28;20310;-65
2022/10/15 07:24:10;;;;;;;17.23;6.87;;;;;;;12.16;100.00;100200.50;5999120;28;20686;-65
2022/10/15 07:27:06;;;;;;;13.48;6.38;;;;;;;12.44;100.00;100215.09;5999751;28;20050;-65
2022/10/15 07:30:01;;;;;;;14.47;8.23;;;;;;;12.50;100.00;100206.44;5999474;28;20371;-65
2022/10/15 07:32:57;;;;;;;14.98;6.93;;;;;;;12.60;100.00;100215.03;5998502;28;20109;-65
2022/10/15 07:35:53;;;;;;;14.65;7.00;;;;;;;12.54;100.00;100211.25;5998372;28;20554;-65
2022/10/15 07:38:48;;;;;;;13.90;7.13;;;;;;;12.77;100.00;100214.00;5997727;28;20035;-65
2022/10/15 07:41:44;;;;;;;12.88;6.97;;;;;;;13.06;100.00;100214.19;5998852;28;20035;-65
2022/10/15 07:44:39;;;;;;;15.70;7.57;;;;;;;13.24;100.00;100199.78;5999377;28;20483;-65
2022/10/15 07:47:35;;;;;;;12.93;6.45;;;;;;;13.46;100.00;100218.47;5999040;28;20038;-65
2022/10/15 07:50:30;;;;;;;15.47;7.83;;;;;;;13.51;100.00;100199.28;5998477;28;20106;-65
2022/10/15 07:53:26;;;;;;;17.53;7.23;;;;;;;13.97;100.00;100216.09;5998524;28;20275;-65
2022/10/15 07:56:21;;;;;;;14.20;7.10;;;;;;;13.79;100.00;100196.91;5999334;28;20070;-65
2022/10/15 07:59:17;;;;;;;15.82;7.88;;;;;;;13.76;100.00;100213.25;5998523;28;20045;-65
2022/10/15 08:02:16;;;;;;;16.90;8.00;;;;;;;13.69;100.00;100199.84;5991207;28;20035;-65
2022/10/15 08:05:11;;;;;;;23.35;9.40;;;;;;;13.82;100.00;100199.22;5998399;28;20445;-65
2022/10/15 08:08:07;;;;;;;20.80;9.90;;;;;;;13.78;100.00;100211.25;5996915;28;20046;-65
2022/10/15 08:11:10;;;;;;;19.50;8.67;;;;;;;14.15;100.00;100206.75;5998412;28;20098;-65
2022/10/15 08:14:05;;;;;;;22.50;8.93;;;;;;;14.12;100.00;100209.78;5998480;28;20062;-65
2022/10/15 08:17:02;;;;;;;23.70;10.63;;;;;;;14.21;100.00;100197.19;5999370;28;20042;-65
2022/10/15 08:19:57;;;;;;;24.02;10.18;;;;;;;14.45;100.00;100196.97;6003499;28;20022;-65
2022/10/15 08:22:55;;;;;;;22.40;9.43;;;;;;;14.58;100.00;100205.16;6002566;28;20105;-65
2022/10/15 08:25:50;;;;;;;21.40;10.65;;;;;;;14.86;100.00;100208.84;6002502;28;20693;-65
2022/10/15 08:28:46;;;;;;;21.77;9.53;;;;;;;14.74;100.00;100198.78;6002883;28;20041;-65
2022/10/15 08:31:41;;;;;;;27.57;11.67;;;;;;;14.59;99.73;100211.34;6002593;28;20107;-65
2022/10/15 08:34:37;;;;;;;21.10;10.45;;;;;;;14.35;100.00;100208.94;6003075;28;20058;-66
2022/10/15 08:37:32;;;;;;;25.30;10.17;;;;;;;14.42;100.00;100204.50;6002953;28;20105;-65
2022/10/15 08:40:28;;;;;;;23.10;9.53;;;;;;;14.59;100.00;100222.00;6002844;28;20038;-65
2022/10/15 08:43:40;;;;;;;19.52;9.63;;;;;;;15.05;98.88;100228.78;6002871;28;20487;-65
2022/10/15 08:46:41;;;;;;;18.52;9.20;;;;;;;14.96;98.32;100223.72;6001917;28;20070;-65
2022/10/15 08:49:48;;;;;;;18.55;8.77;;;;;;;14.77;99.51;100230.47;6017662;28;20064;-65
2022/10/15 08:52:48;;;;;;;24.13;9.30;;;;;;;14.72;99.52;100217.69;6001272;28;20047;-65
2022/10/15 08:55:45;;;;;;;15.45;7.63;;;;;;;15.12;99.49;100235.03;6002630;28;20120;-65
2022/10/15 08:58:43;;;;;;;19.27;9.27;;;;;;;15.06;97.89;100230.41;6001977;28;20042;-65
2022/10/15 09:02:13;;;;;;;20.13;9.43;;;;;;;15.40;98.35;100224.47;6002151;28;20078;-65
2022/10/15 09:05:26;;;;;;;20.52;9.93;;;;;;;16.21;94.80;100223.19;6002934;28;20039;-65
2022/10/15 09:08:45;;;;;;;16.83;9.27;;;;;;;16.06;90.43;100223.28;6017209;28;20034;-65
2022/10/15 09:11:41;;;;;;;22.35;9.27;;;;;;;16.20;91.31;100217.00;6001435;28;20042;-65
2022/10/15 09:14:41;;;;;;;18.30;8.57;;;;;;;16.51;90.54;100209.41;6002343;28;20051;-65
2022/10/15 09:17:36;;;;;;;17.92;9.07;;;;;;;16.34;90.28;100215.25;6002251;28;20046;-65
2022/10/15 09:20:33;;;;;;;18.33;9.35;;;;;;;16.13;89.91;100220.66;6000472;28;20038;-66
2022/10/15 09:23:29;;;;;;;20.48;9.73;;;;;;;16.08;91.37;100223.91;6000776;28;20031;-66
2022/10/15 09:26:39;;;;;;;19.35;10.55;;;;;;;15.93;90.84;100223.16;6002319;28;20320;-66
2022/10/15 09:29:42;;;;;;;19.33;9.70;;;;;;;15.91;91.24;100214.50;6001499;28;20475;-66
2022/10/15 09:33:02;;;;;;;19.42;9.82;;;;;;;15.81;92.59;100200.63;5999974;28;20434;-66
2022/10/15 09:36:05;;;;;;;19.05;8.98;;;;;;;16.03;91.79;100219.13;6000018;28;20034;-66
2022/10/15 09:39:31;;;;;;;17.90;9.15;;;;;;;16.20;90.93;100214.31;6001293;28;20034;-66
2022/10/15 09:42:38;;;;;;;18.80;8.77;;;;;;;16.41;88.72;100222.31;5996067;28;20046;-66
2022/10/15 09:45:33;;;;;;;17.05;9.10;;;;;;;16.29;87.71;100215.00;6000303;28;20035;-66
2022/10/15 09:48:31;;;;;;;16.40;8.87;;;;;;;16.36;88.74;100211.34;6001378;28;20033;-65
2022/10/15 09:51:52;;;;;;;18.30;8.35;;;;;;;16.55;87.91;100212.56;6000426;28;20282;-66
2022/10/15 09:54:51;;;;;;;17.17;8.05;;;;;;;16.68;88.62;100223.34;6000740;28;20047;-66
2022/10/15 09:57:47;;;;;;;16.02;8.27;;;;;;;17.31;86.76;100208.78;5999453;28;20104;-66
2022/10/15 10:00:59;;;;;;;15.68;7.75;;;;;;;17.54;83.80;100217.31;5992860;28;20487;-66
2022/10/15 10:04:13;;;;;;;15.10;8.63;;;;;;;17.46;82.54;100204.06;5989636;28;20545;-66
2022/10/15 10:07:36;;;;;;;18.13;8.68;;;;;;;17.48;82.07;100210.03;5998642;28;20038;-66
2022/10/15 10:10:31;;;;;;;16.45;9.13;;;;;;;18.13;80.23;100213.84;5995134;28;20077;-66
2022/10/15 10:13:58;;;;;;;16.25;9.20;;;;;;;18.05;78.83;100216.72;5997850;28;20695;-66
2022/10/15 10:17:16;;;;;;;18.58;8.15;;;;;;;18.35;76.81;100216.09;6002255;28;20097;-66
2022/10/15 10:20:16;;;;;;;17.02;8.85;;;;;;;18.36;76.91;100216.94;5997740;28;20031;-66
2022/10/15 10:23:23;;;;;;;15.32;8.07;;;;;;;18.25;77.54;100228.28;5998992;28;20035;-66
2022/10/15 10:26:18;;;;;;;13.25;7.85;;;;;;;18.13;76.01;100220.03;6000269;28;20122;-65
2022/10/15 10:29:19;;;;;;;12.38;6.93;;;;;;;17.81;77.59;100232.41;6000820;28;20042;-66
2022/10/15 10:32:20;;;;;;;12.60;7.78;;;;;;;17.77;77.83;100225.78;6015086;28;20085;-66
2022/10/15 10:35:25;;;;;;;13.40;6.93;;;;;;;18.21;77.22;100227.03;6000276;28;20027;-66
2022/10/15 10:38:23;;;;;;;11.18;6.47;;;;;;;17.68;78.64;100218.16;5999045;28;20479;-66
2022/10/15 10:41:18;;;;;;;11.73;6.65;;;;;;;17.48;78.93;100209.19;5998200;28;20037;-66
2022/10/15 10:44:20;;;;;;;12.37;6.77;;;;;;;17.60;80.07;100216.50;6000407;28;20039;-66
2022/10/15 10:47:16;;;;;;;12.95;6.78;;;;;;;17.51;79.90;100225.72;6000366;28;20118;-66
2022/10/15 10:50:30;;;;;;;14.00;6.43;;;;;;;17.30;81.23;100207.13;5999742;28;20034;-66
2022/10/15 10:53:25;;;;;;;13.77;6.32;;;;;;;17.29;81.22;100210.81;5995267;28;20070;-66
2022/10/15 10:56:23;;;;;;;11.20;6.17;;;;;;;17.28;81.40;100219.91;6000123;28;20045;-66
2022/10/15 10:59:25;;;;;;;10.93;5.90;;;;;;;17.42;80.91;100220.75;5997993;28;20126;-66
2022/10/15 11:02:20;;;;;;;9.75;5.25;;;;;;;17.83;78.60;100213.41;5988341;28;20043;-66
2022/10/15 11:05:23;;;;;;;8.07;4.80;;;;;;;17.95;76.32;100193.00;5998365;28;20038;-66
2022/10/15 11:08:34;;;;;;;8.88;4.70;;;;;;;18.70;75.28;100207.78;5998858;28;20800;-66
2022/10/15 11:12:00;;;;;;;8.00;5.05;;;;;;;18.61;73.19;100211.75;5997860;28;20805;-66
2022/10/15 11:15:08;;;;;;;7.43;3.90;;;;;;;18.21;74.76;100209.09;5998035;28;20039;-66
2022/10/15 11:18:19;;;;;;;8.68;3.97;;;;;;;17.74;75.15;100194.03;5998843;28;20038;-65
2022/10/15 11:21:33;;;;;;;6.18;3.22;;;;;;;18.13;75.93;100208.47;5997984;28;20038;-66
2022/10/15 11:24:34;;;;;;;7.07;3.38;;;;;;;18.29;74.08;100197.34;5999510;28;20054;-66
2022/10/15 11:27:45;;;;;;;6.25;3.60;;;;;;;18.28;76.33;100195.69;5998239;28;20035;-66
2022/10/15 11:30:44;;;;;;;5.53;3.33;;;;;;;18.29;73.30;100189.28;5997024;28;20048;-67
2022/10/15 11:33:54;;;;;;;4.90;3.03;;;;;;;18.30;73.56;100186.38;6013821;28;20475;-66
2022/10/15 11:37:17;;;;;;;5.32;3.28;;;;;;;18.30;74.08;100188.22;5997591;28;20046;-66
2022/10/15 11:40:33;;;;;;;4.35;2.60;;;;;;;18.41;70.94;100184.91;5998368;28;20022;-66
2022/10/15 11:43:47;;;;;;;5.30;2.63;;;;;;;18.22;71.01;100180.41;6013396;28;20083;-66
2022/10/15 11:46:54;;;;;;;5.03;3.08;;;;;;;18.24;72.14;100156.84;5998130;28;20042;-66
2022/10/15 11:50:18;;;;;;;4.28;2.28;;;;;;;18.46;71.11;100171.66;5999392;28;20035;-66
2022/10/15 11:53:46;;;;;;;4.18;2.72;;;;;;;18.26;70.76;100154.81;5997026;28;20030;-67
2022/10/15 11:56:45;;;;;;;5.28;2.78;;;;;;;18.20;71.58;100161.81;5997523;28;20038;-66
2022/10/15 11:59:53;;;;;;;3.65;2.42;;;;;;;18.28;70.54;100169.66;5998366;28;20038;-66
2022/10/15 12:02:49;;;;;;;5.32;2.53;;;;;;;18.26;70.11;100165.53;6013363;28;20045;-66
2022/10/15 12:05:51;;;;;;;4.00;2.35;;;;;;;18.34;70.43;100173.38;5997642;28;20065;-66
2022/10/15 12:08:47;;;;;;;5.00;2.53;;;;;;;18.41;70.64;100166.94;5998867;28;20038;-66
2022/10/15 12:11:52;;;;;;;5.32;2.53;;;;;;;18.02;70.98;100158.13;6013232;28;20114;-66
2022/10/15 12:15:15;;;;;;;4.10;2.13;;;;;;;17.99;71.56;100163.91;6013504;28;20046;-67
2022/10/15 12:18:42;;;;;;;2.72;1.67;;;;;;;17.90;72.07;100155.25;6013917;28;20031;-67
2022/10/15 12:21:54;;;;;;;3.42;1.95;;;;;;;18.04;72.38;100161.44;5998043;28;20106;-66
2022/10/15 12:24:52;;;;;;;3.92;2.13;;;;;;;18.05;71.69;100149.63;5998430;28;20039;-66
2022/10/15 12:27:58;;;;;;;3.80;2.00;;;;;;;17.89;72.78;100158.13;5995531;28;20093;-66
2022/10/15 12:30:58;;;;;;;6.13;2.25;;;;;;;17.60;73.25;100160.19;5996407;28;20118;-66
2022/10/15 12:33:55;;;;;;;3.20;2.10;;;;;;;17.59;74.19;100152.34;5998391;28;20026;-67
2022/10/15 12:36:59;;;;;;;4.95;1.98;;;;;;;17.94;73.92;100150.31;5997349;28;20046;-66
2022/10/15 12:39:57;;;;;;;7.18;1.85;;;;;;;18.07;72.49;100134.19;6013423;28;20113;-66
2022/10/15 12:43:02;;;;;;;6.22;2.00;;;;;;;18.28;72.65;100147.34;6012781;28;20037;-66
2022/10/15 12:46:00;;;;;;;3.20;2.10;;;;;;;18.44;71.36;100138.84;6013070;28;20050;-66
2022/10/15 12:48:57;;;;;;;7.78;2.30;;;;;;;18.09;71.11;100137.47;5997686;28;20467;-66
2022/10/15 12:51:53;;;;;;;3.90;2.33;;;;;;;18.00;72.10;100138.72;5997608;28;20037;-66
2022/10/15 12:54:50;;;;;;;4.90;2.15;;;;;;;17.92;72.99;100138.94;5997573;28;20035;-66
2022/10/15 12:57:45;;;;;;;3.60;2.08;;;;;;;18.01;72.66;100118.91;5998172;28;20058;-66
2022/10/15 13:00:41;;;;;;;5.10;2.20;;;;;;;17.95;71.97;100114.38;5998263;28;20037;-66
2022/10/15 13:03:40;;;;;;;4.43;2.00;;;;;;;18.00;72.16;100120.75;5986388;28;20082;-66
2022/10/15 13:06:38;;;;;;;4.00;2.30;;;;;;;18.00;70.59;100119.94;6001551;28;20031;-66
2022/10/15 13:09:34;;;;;;;3.60;1.88;;;;;;;18.00;70.43;100119.94;6002202;28;20046;-66
2022/10/15 13:12:29;;;;;;;4.97;2.43;;;;;;;17.76;70.70;100100.78;6000430;28;20394;-66
2022/10/15 13:15:27;;;;;;;2.90;1.80;;;;;;;17.75;71.73;100106.31;6002240;28;20352;-67
2022/10/15 13:18:23;;;;;;;3.28;2.10;;;;;;;17.76;72.00;100110.66;6002025;28;20027;-66
2022/10/15 13:21:19;;;;;;;4.00;2.30;;;;;;;17.66;72.57;100105.75;6000432;28;20105;-66
2022/10/15 13:24:17;;;;;;;3.33;2.00;;;;;;;17.79;72.73;100110.25;6001736;28;20085;-66
2022/10/15 13:27:24;;;;;;;3.45;1.80;;;;;;;17.99;70.65;100104.88;6002055;28;20266;-66
2022/10/15 13:30:20;;;;;;;4.70;1.63;;;;;;;18.10;70.16;100109.63;6001750;28;20034;-67
2022/10/15 13:33:15;;;;;;;4.30;1.88;;;;;;;18.19;69.83;100105.66;6001774;28;20502;-66
2022/10/15 13:36:25;;;;;;;5.93;2.00;;;;;;;18.20;69.75;100099.25;6001633;28;20031;-66
2022/10/15 13:39:28;;;;;;;3.88;1.80;;;;;;;18.24;70.18;100097.78;6001558;28;20035;-66
2022/10/15 13:42:24;;;;;;;4.65;2.10;;;;;;;18.22;70.49;100089.13;5999263;28;20031;-66
2022/10/15 13:45:20;;;;;;;4.47;2.15;;;;;;;18.18;71.47;100104.03;6001001;28;20497;-66